Aeroporto :
LOGIN :

Iscrizione | Disclaimer

   EN    FR    IT 

 










Sommario :    VFR   VFR Marginale   IFR   IFR Intensivo   IFR Molto Intensivo
Visibilità : 
Base nubi : 
>= 8 km
>= 3000ft
5 / 8 km
1000 / 3000 ft
1500m / 5 km
500 / 1000 ft
800 / 1500m
200 / 500 ft
< 800m
< 200 ft
Simboli :   Temporali  Nebbia  Neve Forte  Precipitazioni Forti  Vento > 20 kt
SIGMETs :   Varie  Temporali  Ghiacco  Turbolenza  Onda orograficha  Ceneri Vulcaniche






- Altitudine del aeroporto : 65 ft
- Codice IATA : PIK


EGPK - Glasgow Prestwick

ULTIMO METAR :
  • 271120Z 28026KT 9999 FEW015CB BKN025 05/00 Q1001

METARs OBSOLETI :
  • 271050Z 26012KT 9999 FEW015CB SCT030 05/01 Q1000
  • 271020Z 25010KT 9999 FEW012 SCT025 04/01 Q1000
  • 270950Z 23011KT 9999 SCT020 04/01 Q0999
  • 270920Z 24011KT 9999 SCT020 03/01 Q0999
  • 270850Z 29011KT 9999 FEW012 SCT027 03/00 Q0999

TAF TAF EGPK
Valido dal 27 a 12 ore il 28 a 12 ore UTC


271058Z 2712/2812 23009KT 9999 FEW010 SCT020
TEMPO 2712/2722 28020G30KT 6000 SHRA SHRASN BKN012CB
TEMPO 2806/2812 5000 RA BKN010
PROB40
TEMPO 2806/2812 4000 RASN BKN008
BECMG 2809/2812 13010KT



MetMap, La meteo Aeronautica in un colpo d'occhio ! - Copyright ORBIFLY Dicembre 2007 - Disclaimer

ORBIFLY MET'MAP TEAM :

Programmazione e sviluppo : Alexandra Zaïnal
Concezione : Baudouin d'Aumeries
Aiuto per la programmazione : Marc-Olivier Méhu
Supporto tecnico e logistico : Manuel Goepfert
Aiuto per la traduzione : Arnaldo La Scala

Contatto : metmap@orbifly.com




FONTI E CREDITI :

   NOAA